Time;durP1;ratioP1;P1;durP2;ratioP2;P2;SDS_P1;SDS_P2;PMS_P1;PMS_P2;Temp;Humidity;BMP_temperature;BMP_pressure;BME280_temperature;BME280_humidity;BME280_pressure;Samples;Min_cycle;Max_cycle;Signal;HPM_P1;HPM_P2
2021/07/12 00:01:30;;;;;;;;;;;14.90;99.90;;;;;;4934481;29;20025;-74
2021/07/12 00:03:56;;;;;;;;;;;14.80;99.90;;;;;;4917546;29;20021;-74
2021/07/12 00:06:23;;;;;;;;;;;14.70;99.90;;;;;;4917603;29;20386;-74
2021/07/12 00:08:55;;;;;;;;;;;14.70;99.90;;;;;;4917592;29;19933;-73
2021/07/12 00:11:27;;;;;;;;;;;14.70;99.90;;;;;;4902197;29;20025;-74
2021/07/12 00:13:59;;;;;;;;;;;14.60;99.90;;;;;;4902350;29;19938;-74
2021/07/12 00:16:30;;;;;;;;;;;14.50;99.90;;;;;;4934480;29;20390;-73
2021/07/12 00:18:57;;;;;;;;;;;14.50;99.90;;;;;;4917687;29;20021;-74
2021/07/12 00:21:24;;;;;;;;;;;14.50;99.90;;;;;;4917118;29;20369;-74
2021/07/12 00:23:56;;;;;;;;;;;14.60;99.90;;;;;;4934228;29;20377;-74
2021/07/12 00:26:27;;;;;;;;;;;14.40;99.90;;;;;;4917409;29;20370;-74
2021/07/12 00:28:59;;;;;;;;;;;14.40;99.90;;;;;;4917353;29;19930;-74
2021/07/12 00:31:26;;;;;;;;;;;14.50;99.90;;;;;;4901420;29;19927;-74
2021/07/12 00:33:58;;;;;;;;;;;14.50;99.90;;;;;;4917468;29;20364;-74
2021/07/12 00:36:25;;;;;;;;;;;14.50;99.90;;;;;;4917275;29;19985;-74
2021/07/12 00:38:57;;;;;;;;;;;14.40;99.90;;;;;;4917336;29;19927;-73
2021/07/12 00:41:24;;;;;;;;;;;14.40;99.90;;;;;;4917293;29;20022;-74
2021/07/12 00:43:51;;;;;;;;;;;14.50;99.90;;;;;;4935877;29;19957;-74
2021/07/12 00:46:18;;;;;;;;;;;14.40;99.90;;;;;;4921029;29;19934;-73
2021/07/12 00:48:45;;;;;;;;;;;14.40;99.90;;;;;;4920867;29;19927;-74
2021/07/12 00:51:13;;;;;;;;;;;14.40;99.90;;;;;;4937488;29;19930;-74
2021/07/12 00:53:40;;;;;;;;;;;14.40;99.90;;;;;;4920535;29;19931;-74
2021/07/12 00:56:08;;;;;;;;;;;14.30;99.90;;;;;;4920885;29;19927;-74
2021/07/12 00:58:42;;;;;;;;;;;14.30;99.90;;;;;;4937538;29;20009;-74
2021/07/12 01:01:09;;;;;;;;;;;14.20;99.90;;;;;;4904270;29;20309;-74
2021/07/12 01:03:42;;;;;;;;;;;14.20;99.90;;;;;;4920902;29;19970;-74
2021/07/12 01:06:13;;;;;;;;;;;14.20;99.90;;;;;;4904757;29;19927;-74
2021/07/12 01:08:43;;;;;;;;;;;14.20;99.90;;;;;;4920337;29;19978;-73
2021/07/12 01:11:17;;;;;;;;;;;14.10;99.90;;;;;;4904520;29;20373;-74
2021/07/12 01:13:49;;;;;;;;;;;14.10;99.90;;;;;;4904504;29;19927;-74
2021/07/12 01:16:35;;;;;;;;;;;14.10;99.90;;;;;;4921184;29;19934;-74
2021/07/12 01:19:17;;;;;;;;;;;14.10;99.90;;;;;;4919653;29;20029;-74
2021/07/12 01:21:44;;;;;;;;;;;14.20;99.90;;;;;;4919180;29;19965;-73
2021/07/12 01:24:10;;;;;;;;;;;14.10;99.90;;;;;;4936461;29;20014;-74
2021/07/12 01:26:42;;;;;;;;;;;14.10;99.90;;;;;;4919422;29;19931;-73
2021/07/12 01:29:30;;;;;;;;;;;14.10;99.90;;;;;;4919519;29;19934;-74
2021/07/12 01:32:05;;;;;;;;;;;14.00;99.90;;;;;;4936923;29;20571;-74
2021/07/12 01:34:38;;;;;;;;;;;14.00;99.90;;;;;;4919722;29;19930;-73
2021/07/12 01:37:22;;;;;;;;;;;13.90;99.90;;;;;;4919138;29;19937;-74
2021/07/12 01:39:55;;;;;;;;;;;13.90;99.90;;;;;;4951731;29;20312;-74
2021/07/12 01:42:41;;;;;;;;;;;13.90;99.90;;;;;;4919483;29;19931;-74
2021/07/12 01:45:10;;;;;;;;;;;13.80;99.90;;;;;;4919670;29;19926;-73
2021/07/12 01:47:52;;;;;;;;;;;13.80;99.90;;;;;;4919560;29;19931;-73
2021/07/12 01:50:20;;;;;;;;;;;13.80;99.90;;;;;;4919728;29;19978;-74
2021/07/12 01:53:07;;;;;;;;;;;13.80;99.90;;;;;;4935277;29;19934;-74
2021/07/12 01:55:53;;;;;;;;;;;13.80;99.90;;;;;;4903099;29;19933;-74
2021/07/12 01:58:52;;;;;;;;;;;13.80;99.90;;;;;;4934464;29;20329;-74
2021/07/12 02:01:20;;;;;;;;;;;13.70;99.90;;;;;;4917069;29;19934;-74
2021/07/12 02:03:58;;;;;;;;;;;13.70;99.90;;;;;;4904507;29;20349;-74
2021/07/12 02:06:27;;;;;;;;;;;13.70;99.90;;;;;;4919358;29;20025;-73
2021/07/12 02:08:55;;;;;;;;;;;13.60;99.90;;;;;;4903664;29;19927;-73
2021/07/12 02:11:36;;;;;;;;;;;13.60;99.90;;;;;;4904916;29;19927;-75
2021/07/12 02:14:08;;;;;;;;;;;13.50;99.90;;;;;;4904352;29;19926;-73
2021/07/12 02:16:40;;;;;;;;;;;13.50;99.90;;;;;;4918978;29;19966;-73
2021/07/12 02:19:08;;;;;;;;;;;13.50;99.90;;;;;;4919185;29;19986;-74
2021/07/12 02:21:53;;;;;;;;;;;13.50;99.90;;;;;;4905419;29;19931;-74
2021/07/12 02:24:44;;;;;;;;;;;13.40;99.90;;;;;;4937492;29;20022;-74
2021/07/12 02:27:10;;;;;;;;;;;13.40;99.90;;;;;;4919037;29;19927;-74
2021/07/12 02:29:42;;;;;;;;;;;13.40;99.90;;;;;;4918935;29;19926;-74
2021/07/12 02:32:16;;;;;;;;;;;13.40;99.90;;;;;;4903442;29;19934;-74
2021/07/12 02:34:49;;;;;;;;;;;13.30;99.90;;;;;;4918813;29;19926;-73
2021/07/12 02:37:21;;;;;;;;;;;13.30;99.90;;;;;;4903595;29;19970;-74
2021/07/12 02:39:53;;;;;;;;;;;13.30;99.90;;;;;;4903848;29;19927;-74
2021/07/12 02:42:27;;;;;;;;;;;13.20;99.90;;;;;;4903331;29;19927;-73
2021/07/12 02:45:00;;;;;;;;;;;13.20;99.90;;;;;;4918755;29;20354;-74
2021/07/12 02:47:27;;;;;;;;;;;13.10;99.90;;;;;;4919088;29;19927;-74
2021/07/12 02:50:00;;;;;;;;;;;13.10;99.90;;;;;;4918559;29;19931;-74
2021/07/12 02:52:37;;;;;;;;;;;13.10;99.90;;;;;;4918239;29;20013;-74
2021/07/12 02:55:09;;;;;;;;;;;13.00;99.90;;;;;;4919470;29;19934;-74
2021/07/12 02:57:36;;;;;;;;;;;13.00;99.90;;;;;;4936249;29;19926;-74
2021/07/12 03:00:10;;;;;;;;;;;13.00;99.90;;;;;;4919022;29;19926;-74
2021/07/12 03:02:37;;;;;;;;;;;13.10;99.90;;;;;;4902821;29;20287;-74
2021/07/12 03:05:13;;;;;;;;;;;13.10;99.90;;;;;;4903880;29;19938;-74
2021/07/12 03:07:54;;;;;;;;;;;13.10;99.90;;;;;;4918277;29;19926;-74
2021/07/12 03:10:27;;;;;;;;;;;13.10;99.90;;;;;;4918184;29;19962;-74
2021/07/12 03:12:57;;;;;;;;;;;13.10;99.90;;;;;;4902451;29;19926;-74
2021/07/12 03:15:29;;;;;;;;;;;13.00;99.90;;;;;;4918160;29;19926;-74
2021/07/12 03:17:58;;;;;;;;;;;13.00;99.90;;;;;;4918261;29;19993;-74
2021/07/12 03:20:27;;;;;;;;;;;13.00;99.90;;;;;;4902401;29;20417;-74
2021/07/12 03:23:01;;;;;;;;;;;13.00;99.90;;;;;;4934835;29;19927;-74
2021/07/12 03:25:33;;;;;;;;;;;12.90;99.90;;;;;;4918087;29;19931;-74
2021/07/12 03:28:02;;;;;;;;;;;12.90;99.90;;;;;;4918012;29;20417;-74
2021/07/12 03:30:30;;;;;;;;;;;12.90;99.90;;;;;;4902287;29;19934;-74
2021/07/12 03:33:03;;;;;;;;;;;12.80;99.90;;;;;;4918509;29;20018;-74
2021/07/12 03:35:41;;;;;;;;;;;12.80;99.90;;;;;;4917794;29;19933;-74
2021/07/12 03:38:08;;;;;;;;;;;12.80;99.90;;;;;;4902243;29;19978;-74
2021/07/12 03:40:35;;;;;;;;;;;12.90;99.90;;;;;;4902311;29;19927;-74
2021/07/12 03:43:09;;;;;;;;;;;12.80;99.90;;;;;;4902494;29;19927;-74
2021/07/12 03:45:37;;;;;;;;;;;12.80;99.90;;;;;;4902040;29;20393;-74
2021/07/12 03:48:04;;;;;;;;;;;12.80;99.90;;;;;;4934715;29;19931;-74
2021/07/12 03:50:37;;;;;;;;;;;12.80;99.90;;;;;;4917203;29;20450;-74
2021/07/12 03:53:08;;;;;;;;;;;12.70;99.90;;;;;;4933949;29;19927;-74
2021/07/12 03:55:35;;;;;;;;;;;12.70;99.90;;;;;;4917007;29;20366;-74
2021/07/12 03:58:03;;;;;;;;;;;12.70;99.90;;;;;;4934052;29;19927;-73
2021/07/12 04:00:35;;;;;;;;;;;12.70;99.90;;;;;;4917079;29;19926;-74
2021/07/12 04:03:07;;;;;;;;;;;12.70;99.90;;;;;;4901876;29;19930;-75
2021/07/12 04:05:38;;;;;;;;;;;12.70;99.90;;;;;;4933929;29;20042;-74
2021/07/12 04:08:05;;;;;;;;;;;12.60;99.90;;;;;;4917069;29;20062;-74
2021/07/12 04:10:37;;;;;;;;;;;12.60;99.90;;;;;;4919924;29;19977;-73
2021/07/12 04:13:09;;;;;;;;;;;12.50;99.90;;;;;;4920062;29;19926;-74
2021/07/12 04:15:36;;;;;;;;;;;12.50;99.90;;;;;;4916669;29;19982;-74
2021/07/12 04:18:05;;;;;;;;;;;12.50;99.90;;;;;;4914550;29;19934;-73
2021/07/12 04:20:32;;;;;;;;;;;12.50;99.90;;;;;;4904269;29;19930;-74
2021/07/12 04:22:59;;;;;;;;;;;12.50;99.90;;;;;;4919677;29;19970;-74
2021/07/12 04:25:31;;;;;;;;;;;12.50;99.90;;;;;;4919757;29;20037;-74
2021/07/12 04:28:03;;;;;;;;;;;12.50;99.90;;;;;;4921012;29;19957;-74
2021/07/12 04:30:35;;;;;;;;;;;12.50;99.90;;;;;;4919907;29;20361;-73
2021/07/12 04:33:01;;;;;;;;;;;12.60;99.90;;;;;;4920145;29;19930;-74
2021/07/12 04:35:28;;;;;;;;;;;12.60;99.90;;;;;;4904740;29;20314;-73
2021/07/12 04:38:00;;;;;;;;;;;12.60;99.90;;;;;;4920297;29;19931;-73
2021/07/12 04:40:27;;;;;;;;;;;12.70;99.90;;;;;;4979844;23;19950;-73
2021/07/12 04:42:58;;;;;;;;;;;12.70;99.90;;;;;;4919170;29;19958;-73
2021/07/12 04:45:27;;;;;;;;;;;12.70;99.90;;;;;;4901572;29;20039;-74
2021/07/12 04:47:59;;;;;;;;;;;12.70;99.90;;;;;;4901791;29;19927;-74
2021/07/12 04:50:32;;;;;;;;;;;12.80;99.90;;;;;;4901623;29;19933;-73
2021/07/12 04:52:59;;;;;;;;;;;12.80;99.90;;;;;;4900720;29;19983;-74
2021/07/12 04:55:25;;;;;;;;;;;12.80;99.90;;;;;;4950072;29;20037;-74
2021/07/12 04:57:57;;;;;;;;;;;12.80;99.90;;;;;;4936466;29;20009;-74
2021/07/12 05:00:24;;;;;;;;;;;12.80;99.90;;;;;;4900936;29;19966;-73
2021/07/12 05:02:50;;;;;;;;;;;12.90;99.90;;;;;;4944790;28;19970;-73
2021/07/12 05:05:22;;;;;;;;;;;12.90;99.90;;;;;;4937844;29;19930;-71
2021/07/12 05:07:49;;;;;;;;;;;12.90;99.90;;;;;;4938333;29;20020;-72
2021/07/12 05:10:20;;;;;;;;;;;12.90;99.90;;;;;;4938438;29;19933;-73
2021/07/12 05:12:47;;;;;;;;;;;13.00;99.90;;;;;;4922160;28;20067;-73
2021/07/12 05:15:19;;;;;;;;;;;13.00;99.90;;;;;;4938904;29;19933;-73
2021/07/12 05:17:45;;;;;;;;;;;13.10;99.90;;;;;;4955390;29;19958;-73
2021/07/12 05:20:12;;;;;;;;;;;13.10;99.90;;;;;;4936956;29;20358;-73
2021/07/12 05:22:44;;;;;;;;;;;13.20;99.90;;;;;;4937729;28;19937;-72
2021/07/12 05:25:15;;;;;;;;;;;13.20;99.90;;;;;;4955193;29;19936;-73
2021/07/12 05:27:42;;;;;;;;;;;13.30;99.90;;;;;;4937844;29;19977;-73
2021/07/12 05:30:14;;;;;;;;;;;13.30;99.90;;;;;;4937309;29;19933;-73
2021/07/12 05:32:46;;;;;;;;;;;13.40;99.90;;;;;;4922227;28;19930;-73
2021/07/12 05:35:13;;;;;;;;;;;13.40;99.90;;;;;;4937756;29;19972;-73
2021/07/12 05:37:44;;;;;;;;;;;13.40;99.90;;;;;;4935382;29;19935;-73
2021/07/12 05:40:16;;;;;;;;;;;13.40;99.90;;;;;;4919502;29;20025;-73
2021/07/12 05:42:48;;;;;;;;;;;13.50;99.90;;;;;;4933924;29;20025;-73
2021/07/12 05:45:14;;;;;;;;;;;13.60;99.90;;;;;;4901999;29;20365;-73
2021/07/12 05:47:46;;;;;;;;;;;13.60;99.90;;;;;;4918690;29;20029;-72
2021/07/12 05:50:18;;;;;;;;;;;13.60;99.90;;;;;;4927147;29;19926;-73
2021/07/12 05:52:44;;;;;;;;;;;13.70;99.90;;;;;;4920651;29;19979;-73
2021/07/12 05:55:12;;;;;;;;;;;13.70;99.90;;;;;;4934927;29;19926;-73
2021/07/12 05:57:43;;;;;;;;;;;13.70;99.90;;;;;;4914130;29;19937;-73
2021/07/12 06:00:15;;;;;;;;;;;13.80;99.90;;;;;;4917295;29;19965;-73
2021/07/12 06:02:47;;;;;;;;;;;13.80;99.90;;;;;;4928322;29;19956;-73
2021/07/12 06:05:14;;;;;;;;;;;13.90;99.90;;;;;;4901680;29;20013;-75
2021/07/12 06:07:41;;;;;;;;;;;13.90;99.90;;;;;;4916213;29;19927;-72
2021/07/12 06:10:13;;;;;;;;;;;14.00;99.90;;;;;;4932062;29;19933;-73
2021/07/12 06:12:40;;;;;;;;;;;14.00;99.90;;;;;;4899360;29;20015;-73
2021/07/12 06:15:07;;;;;;;;;;;14.10;99.90;;;;;;4895653;29;20029;-73
2021/07/12 06:17:34;;;;;;;;;;;14.10;99.90;;;;;;4934004;29;20010;-73
2021/07/12 06:20:01;;;;;;;;;;;14.20;99.90;;;;;;4931849;29;19933;-73
2021/07/12 06:22:33;;;;;;;;;;;14.20;99.90;;;;;;4914662;29;19931;-73
2021/07/12 06:25:04;;;;;;;;;;;14.30;99.90;;;;;;4917238;29;19927;-72
2021/07/12 06:27:31;;;;;;;;;;;14.40;99.90;;;;;;4917352;29;19977;-73
2021/07/12 06:30:04;;;;;;;;;;;14.40;99.90;;;;;;4902266;29;20420;-73
2021/07/12 06:32:36;;;;;;;;;;;14.50;99.90;;;;;;4917995;29;20029;-73
2021/07/12 06:35:03;;;;;;;;;;;14.60;99.90;;;;;;4917752;29;20302;-73
2021/07/12 06:37:30;;;;;;;;;;;14.60;99.90;;;;;;4934376;29;19966;-73
2021/07/12 06:39:57;;;;;;;;;;;14.70;99.90;;;;;;4934642;29;20600;-73
2021/07/12 06:42:23;;;;;;;;;;;14.80;99.90;;;;;;4841040;29;1776850;-72
2021/07/12 06:44:57;;;;;;;;;;;14.90;99.90;;;;;;4903327;29;20485;-72
2021/07/12 06:47:27;;;;;;;;;;;15.10;99.90;;;;;;4902313;29;19975;-72
2021/07/12 06:50:03;;;;;;;;;;;15.10;99.90;;;;;;4935318;29;19927;-73
2021/07/12 06:52:34;;;;;;;;;;;15.30;99.90;;;;;;4901140;29;19930;-73
2021/07/12 06:55:01;;;;;;;;;;;15.40;99.90;;;;;;4918594;29;19927;-74
2021/07/12 06:57:33;;;;;;;;;;;15.50;99.90;;;;;;4917694;29;19927;-73
2021/07/12 07:00:05;;;;;;;;;;;15.60;99.90;;;;;;4934827;29;20002;-73
2021/07/12 07:02:54;;;;;;;;;;;15.70;99.90;;;;;;4901923;29;19983;-73
2021/07/12 07:05:20;;;;;;;;;;;15.90;99.90;;;;;;4916050;29;19928;-72
2021/07/12 07:07:52;;;;;;;;;;;16.00;99.90;;;;;;4914656;29;19975;-73
2021/07/12 07:10:24;;;;;;;;;;;16.10;99.90;;;;;;4913865;29;19933;-74
2021/07/12 07:12:55;;;;;;;;;;;16.30;99.90;;;;;;4914016;29;20029;-73
2021/07/12 07:15:27;;;;;;;;;;;16.40;99.90;;;;;;4930071;29;19975;-73
2021/07/12 07:17:55;;;;;;;;;;;16.50;99.90;;;;;;4926231;29;19927;-73
2021/07/12 07:20:27;;;;;;;;;;;16.70;99.90;;;;;;4902551;29;19973;-73
2021/07/12 07:22:53;;;;;;;;;;;16.80;99.90;;;;;;4916234;29;19979;-73
2021/07/12 07:25:25;;;;;;;;;;;16.90;99.90;;;;;;4902448;29;19926;-73
2021/07/12 07:27:55;;;;;;;;;;;17.00;99.90;;;;;;4917611;29;20092;-73
2021/07/12 07:30:22;;;;;;;;;;;17.10;99.90;;;;;;4917520;29;20057;-74
2021/07/12 07:32:49;;;;;;;;;;;17.30;99.90;;;;;;4917269;29;19960;-73
2021/07/12 07:35:17;;;;;;;;;;;17.40;99.90;;;;;;4901960;29;19966;-73
2021/07/12 07:37:49;;;;;;;;;;;17.50;99.90;;;;;;4917453;29;19962;-73
2021/07/12 07:40:17;;;;;;;;;;;17.60;99.90;;;;;;4933885;29;19984;-74
2021/07/12 07:42:49;;;;;;;;;;;17.80;99.90;;;;;;4901519;29;19927;-74
2021/07/12 07:45:21;;;;;;;;;;;17.90;99.90;;;;;;4917639;29;20005;-73
2021/07/12 07:47:53;;;;;;;;;;;18.00;99.90;;;;;;4918213;29;20394;-73
2021/07/12 07:50:24;;;;;;;;;;;18.20;99.90;;;;;;4902293;29;19970;-74
2021/07/12 07:52:51;;;;;;;;;;;18.40;99.90;;;;;;4916432;29;20029;-74
2021/07/12 07:55:23;;;;;;;;;;;18.40;99.90;;;;;;4916938;29;20014;-73
2021/07/12 07:57:49;;;;;;;;;;;18.60;99.90;;;;;;4948683;29;20507;-74
2021/07/12 08:00:21;;;;;;;;;;;18.70;99.90;;;;;;4947941;29;19931;-73
2021/07/12 08:02:48;;;;;;;;;;;18.80;99.90;;;;;;4901256;29;19969;-73
2021/07/12 08:05:20;;;;;;;;;;;18.90;99.90;;;;;;4918209;29;19927;-73
2021/07/12 08:07:47;;;;;;;;;;;19.00;99.90;;;;;;4917196;29;19927;-74
2021/07/12 08:10:17;;;;;;;;;;;19.00;99.90;;;;;;4916851;29;19974;-73
2021/07/12 08:12:45;;;;;;;;;;;19.10;99.90;;;;;;4916345;29;19955;-73
2021/07/12 08:15:17;;;;;;;;;;;19.20;99.90;;;;;;4918297;29;20026;-74
2021/07/12 08:17:46;;;;;;;;;;;19.30;99.90;;;;;;4917112;29;20283;-73
2021/07/12 08:20:13;;;;;;;;;;;19.30;99.90;;;;;;4948451;29;19981;-73
2021/07/12 08:22:40;;;;;;;;;;;19.40;99.90;;;;;;4900713;29;19954;-73
2021/07/12 08:25:08;;;;;;;;;;;19.50;99.90;;;;;;4948368;28;19930;-73
2021/07/12 08:27:35;;;;;;;;;;;19.50;99.90;;;;;;4932363;29;19927;-73
2021/07/12 08:30:08;;;;;;;;;;;19.60;99.90;;;;;;4915704;29;19978;-73
2021/07/12 08:32:40;;;;;;;;;;;19.70;99.90;;;;;;4916773;29;20316;-74
2021/07/12 08:35:08;;;;;;;;;;;19.80;99.90;;;;;;4916916;29;20154;-74
2021/07/12 08:37:35;;;;;;;;;;;19.90;99.90;;;;;;4917144;29;19975;-74
2021/07/12 08:40:04;;;;;;;;;;;20.00;99.90;;;;;;4895702;29;20017;-74
2021/07/12 08:42:30;;;;;;;;;;;20.10;99.90;;;;;;4898007;29;20026;-73
2021/07/12 08:44:57;;;;;;;;;;;20.10;99.90;;;;;;4913938;29;20034;-74
2021/07/12 08:47:24;;;;;;;;;;;20.20;99.90;;;;;;4898319;29;20405;-73
2021/07/12 08:49:51;;;;;;;;;;;20.20;99.90;;;;;;4917064;29;19927;-74
2021/07/12 08:52:22;;;;;;;;;;;20.40;99.90;;;;;;4930732;29;19964;-74
2021/07/12 08:54:54;;;;;;;;;;;20.50;99.90;;;;;;4932624;29;19926;-74
2021/07/12 08:57:26;;;;;;;;;;;20.60;99.90;;;;;;4932922;29;20030;-74
2021/07/12 08:59:57;;;;;;;;;;;20.60;99.90;;;;;;4933901;29;20025;-74
2021/07/12 09:02:30;;;;;;;;;;;20.60;99.90;;;;;;4932587;29;19926;-74
2021/07/12 09:05:02;;;;;;;;;;;20.60;99.90;;;;;;4949563;28;19985;-74
2021/07/12 09:07:29;;;;;;;;;;;20.70;99.90;;;;;;4952296;28;19966;-73
2021/07/12 09:09:56;;;;;;;;;;;20.80;99.90;;;;;;4936058;29;19926;-73
2021/07/12 09:12:23;;;;;;;;;;;20.90;99.90;;;;;;4951749;29;19965;-73
2021/07/12 09:15:04;;;;;;;;;;;21.00;99.90;;;;;;4935934;29;19977;-74
2021/07/12 09:17:32;;;;;;;;;;;21.10;99.90;;;;;;4952085;28;20021;-74
2021/07/12 09:19:59;;;;;;;;;;;21.30;99.90;;;;;;4935764;29;20385;-74
2021/07/12 09:22:32;;;;;;;;;;;21.40;99.90;;;;;;4935371;29;20009;-74
2021/07/12 09:25:00;;;;;;;;;;;21.40;99.90;;;;;;4903819;29;19966;-74
2021/07/12 09:27:28;;;;;;;;;;;21.50;99.90;;;;;;4919307;29;20308;-74
2021/07/12 09:29:57;;;;;;;;;;;21.60;99.90;;;;;;4919752;29;19930;-74
2021/07/12 09:32:30;;;;;;;;;;;21.70;99.90;;;;;;4920492;29;20029;-74
2021/07/12 09:35:01;;;;;;;;;;;21.70;99.90;;;;;;4904151;29;19959;-74
2021/07/12 09:37:28;;;;;;;;;;;21.80;99.90;;;;;;4919986;29;19930;-74
2021/07/12 09:40:01;;;;;;;;;;;22.00;99.90;;;;;;4919244;29;19926;-74
2021/07/12 09:42:33;;;;;;;;;;;22.10;99.90;;;;;;4919532;29;20046;-74
2021/07/12 09:45:06;;;;;;;;;;;22.20;99.90;;;;;;4919637;29;19927;-74
2021/07/12 09:47:39;;;;;;;;;;;22.30;99.90;;;;;;4919378;29;19966;-74
2021/07/12 09:50:12;;;;;;;;;;;22.40;99.90;;;;;;4920128;29;20364;-74
2021/07/12 09:52:48;;;;;;;;;;;22.60;99.90;;;;;;4935736;29;19958;-74
2021/07/12 09:55:24;;;;;;;;;;;22.60;99.90;;;;;;4936349;29;19977;-74
2021/07/12 09:58:12;;;;;;;;;;;22.70;99.90;;;;;;4904360;29;20021;-75
2021/07/12 10:00:48;;;;;;;;;;;22.80;99.90;;;;;;4919088;29;19965;-74
2021/07/12 10:03:16;;;;;;;;;;;23.00;99.90;;;;;;4918589;29;19974;-74
2021/07/12 10:05:48;;;;;;;;;;;23.00;99.90;;;;;;4918812;29;20021;-75
2021/07/12 10:08:20;;;;;;;;;;;23.20;99.90;;;;;;4924593;29;19962;-74
2021/07/12 10:10:52;;;;;;;;;;;23.20;99.90;;;;;;4934320;29;19974;-74
2021/07/12 10:13:19;;;;;;;;;;;23.30;99.90;;;;;;4934205;29;20026;-74
2021/07/12 10:15:45;;;;;;;;;;;23.40;99.90;;;;;;4950511;28;19962;-74
2021/07/12 10:18:12;;;;;;;;;;;23.50;99.90;;;;;;4934252;29;20013;-74
2021/07/12 10:20:44;;;;;;;;;;;23.60;99.90;;;;;;4964802;28;19978;-74
2021/07/12 10:23:17;;;;;;;;;;;23.70;99.90;;;;;;4934213;29;19933;-74
2021/07/12 10:25:52;;;;;;;;;;;23.80;99.90;;;;;;4930674;29;19926;-75
2021/07/12 10:28:35;;;;;;;;;;;23.90;99.90;;;;;;4918603;29;20506;-74
2021/07/12 10:31:20;;;;;;;;;;;23.90;99.90;;;;;;4903822;29;20300;-74
2021/07/12 10:33:47;;;;;;;;;;;24.00;99.90;;;;;;4898623;29;19934;-74
2021/07/12 10:36:38;;;;;;;;;;;24.10;99.90;;;;;;4917324;29;20389;-74
2021/07/12 10:39:10;;;;;;;;;;;24.20;99.90;;;;;;4944899;29;20229;-74
2021/07/12 10:41:46;;;;;;;;;;;24.30;99.90;;;;;;4917684;29;20305;-74
2021/07/12 10:44:13;;;;;;;;;;;24.40;99.90;;;;;;4913175;29;20445;-74
2021/07/12 10:46:46;;;;;;;;;;;24.50;99.90;;;;;;4924386;29;19969;-74
2021/07/12 10:49:31;;;;;;;;;;;24.60;99.90;;;;;;4914891;29;19966;-73
2021/07/12 10:52:04;;;;;;;;;;;24.70;99.90;;;;;;4898516;29;20462;-73
2021/07/12 10:54:51;;;;;;;;;;;24.70;99.90;;;;;;4906462;29;19966;-74
2021/07/12 10:57:17;;;;;;;;;;;24.70;99.90;;;;;;4937341;29;20149;-73
2021/07/12 10:59:44;;;;;;;;;;;24.80;99.90;;;;;;4935953;29;19951;-73
2021/07/12 11:02:14;;;;;;;;;;;24.90;99.90;;;;;;4922202;29;20935;-74
2021/07/12 11:04:53;;;;;;;;;;;25.00;99.90;;;;;;4921174;29;19995;-73
2021/07/12 11:07:38;;;;;;;;;;;25.10;99.90;;;;;;4946393;28;20025;-74
2021/07/12 11:10:05;;;;;;;;;;;25.10;99.90;;;;;;4915657;29;20340;-74
2021/07/12 11:12:39;;;;;;;;;;;25.20;99.90;;;;;;4906976;29;19933;-74
2021/07/12 11:15:12;;;;;;;;;;;25.30;99.90;;;;;;4920932;29;20577;-73
2021/07/12 11:18:02;;;;;;;;;;;25.40;99.90;;;;;;4934111;29;19926;-73
2021/07/12 11:20:40;;;;;;;;;;;25.40;99.90;;;;;;4894013;29;19933;-74
2021/07/12 11:23:07;;;;;;;;;;;25.50;99.90;;;;;;4916483;29;20018;-73
2021/07/12 11:25:39;;;;;;;;;;;25.60;99.90;;;;;;4920101;29;19974;-74
2021/07/12 11:28:13;;;;;;;;;;;25.60;99.90;;;;;;4925988;29;19962;-73
2021/07/12 11:30:40;;;;;;;;;;;25.70;99.90;;;;;;4932852;29;19926;-74
2021/07/12 11:33:29;;;;;;;;;;;25.80;99.90;;;;;;4919777;29;19927;-74
2021/07/12 11:36:00;;;;;;;;;;;25.90;99.90;;;;;;4925216;29;19932;-73
2021/07/12 11:38:27;;;;;;;;;;;26.00;99.90;;;;;;4908590;29;19927;-74
2021/07/12 11:41:04;;;;;;;;;;;26.00;99.90;;;;;;4897109;29;19934;-74
2021/07/12 11:43:30;;;;;;;;;;;26.10;99.90;;;;;;4899302;29;20009;-73
2021/07/12 11:46:02;;;;;;;;;;;26.20;99.90;;;;;;4925714;29;20460;-73
2021/07/12 11:48:34;;;;;;;;;;;26.30;99.90;;;;;;4921333;29;20014;-74
2021/07/12 11:51:01;;;;;;;;;;;26.30;99.90;;;;;;4935938;29;19977;-73
2021/07/12 11:53:27;;;;;;;;;;;26.40;99.90;;;;;;4919878;29;20483;-73
2021/07/12 11:55:54;;;;;;;;;;;26.50;99.90;;;;;;4921249;29;19990;-74
2021/07/12 11:58:22;;;;;;;;;;;26.60;99.90;;;;;;4939272;28;20342;-73
2021/07/12 12:00:48;;;;;;;;;;;26.60;99.90;;;;;;4933874;29;20159;-73
2021/07/12 12:03:16;;;;;;;;;;;26.60;99.90;;;;;;4913545;29;19974;-73
2021/07/12 12:05:49;;;;;;;;;;;26.70;99.90;;;;;;4936364;29;19927;-74
2021/07/12 12:08:22;;;;;;;;;;;26.70;99.90;;;;;;4925206;29;20358;-74
2021/07/12 12:10:50;;;;;;;;;;;26.80;99.90;;;;;;4933204;29;20353;-73
2021/07/12 12:13:18;;;;;;;;;;;26.80;99.90;;;;;;4908099;29;19930;-72
2021/07/12 12:15:52;;;;;;;;;;;26.90;99.90;;;;;;4917927;29;19995;-74
2021/07/12 12:18:27;;;;;;;;;;;27.00;99.90;;;;;;4923285;29;19938;-75
2021/07/12 12:20:58;;;;;;;;;;;27.10;99.90;;;;;;4901150;29;19962;-74
2021/07/12 12:23:30;;;;;;;;;;;27.10;99.90;;;;;;4932135;29;19931;-73
2021/07/12 12:26:05;;;;;;;;;;;27.10;99.90;;;;;;4917222;29;20025;-74
2021/07/12 12:28:35;;;;;;;;;;;27.20;99.90;;;;;;4918575;29;19927;-74
2021/07/12 12:31:07;;;;;;;;;;;27.30;99.90;;;;;;4897139;29;19955;-74
2021/07/12 12:33:53;;;;;;;;;;;27.40;99.90;;;;;;4900607;29;19931;-74
2021/07/12 12:36:26;;;;;;;;;;;27.50;99.90;;;;;;4954180;28;19933;-73
2021/07/12 12:39:06;;;;;;;;;;;27.60;99.90;;;;;;4933583;29;20405;-73
2021/07/12 12:41:34;;;;;;;;;;;27.80;99.90;;;;;;4919579;29;19934;-73
2021/07/12 12:44:02;;;;;;;;;;;27.90;99.90;;;;;;4894821;29;20017;-74
2021/07/12 12:46:35;;;;;;;;;;;27.90;99.90;;;;;;4929438;29;20304;-74
2021/07/12 12:49:13;;;;;;;;;;;27.90;99.90;;;;;;4943184;29;19969;-73
2021/07/12 12:51:52;;;;;;;;;;;28.10;99.90;;;;;;4936254;29;19926;-73
2021/07/12 12:54:29;;;;;;;;;;;28.20;99.90;;;;;;4912516;29;19931;-72
2021/07/12 12:57:04;;;;;;;;;;;28.20;99.90;;;;;;4948577;29;19961;-73
2021/07/12 12:59:38;;;;;;;;;;;28.30;99.90;;;;;;4901775;29;19983;-73
2021/07/12 13:02:12;;;;;;;;;;;28.30;99.90;;;;;;4917425;29;19963;-73
2021/07/12 13:04:48;;;;;;;;;;;28.50;99.90;;;;;;4914386;29;20225;-73
2021/07/12 13:07:25;;;;;;;;;;;28.50;99.90;;;;;;4934638;29;19930;-74
2021/07/12 13:10:00;;;;;;;;;;;28.60;99.90;;;;;;4920534;29;20021;-74
2021/07/12 13:12:37;;;;;;;;;;;28.50;99.90;;;;;;4915744;29;19927;-74
2021/07/12 13:15:07;;;;;;;;;;;28.50;99.90;;;;;;4918834;29;19931;-74
2021/07/12 13:17:35;;;;;;;;;;;28.60;99.90;;;;;;4931955;29;20061;-74
2021/07/12 13:20:08;;;;;;;;;;;28.60;99.90;;;;;;4933057;29;19927;-74
2021/07/12 13:22:41;;;;;;;;;;;28.70;99.90;;;;;;4930916;29;19939;-75
2021/07/12 13:25:09;;;;;;;;;;;28.80;99.90;;;;;;4915374;29;20406;-74
2021/07/12 13:27:42;;;;;;;;;;;29.00;99.90;;;;;;4929313;29;19926;-74
2021/07/12 13:30:14;;;;;;;;;;;29.10;99.90;;;;;;4919469;29;20030;-74
2021/07/12 13:32:45;;;;;;;;;;;29.20;99.90;;;;;;4926180;29;20465;-74
2021/07/12 13:35:18;;;;;;;;;;;29.30;98.90;;;;;;4915632;29;20309;-74
2021/07/12 13:37:51;;;;;;;;;;;29.30;98.70;;;;;;4934924;29;20002;-74
2021/07/12 13:40:18;;;;;;;;;;;29.40;97.00;;;;;;4917523;29;19927;-74
2021/07/12 13:42:50;;;;;;;;;;;29.50;97.80;;;;;;4899613;29;20034;-74
2021/07/12 13:45:19;;;;;;;;;;;29.60;97.30;;;;;;4924145;29;19987;-74
2021/07/12 13:47:46;;;;;;;;;;;29.70;96.70;;;;;;4931635;29;20223;-74
2021/07/12 13:50:20;;;;;;;;;;;29.80;95.80;;;;;;4902368;29;19982;-74
2021/07/12 13:52:47;;;;;;;;;;;29.90;98.00;;;;;;4914086;29;19927;-74
2021/07/12 13:55:15;;;;;;;;;;;30.00;95.80;;;;;;4923662;29;20248;-75
2021/07/12 13:57:46;;;;;;;;;;;30.10;94.00;;;;;;4933517;29;20029;-74
2021/07/12 14:00:14;;;;;;;;;;;30.20;94.00;;;;;;4917380;29;19973;-74
2021/07/12 14:02:40;;;;;;;;;;;30.30;94.90;;;;;;4929763;29;19937;-74
2021/07/12 14:05:13;;;;;;;;;;;30.30;94.70;;;;;;4927513;29;19933;-75
2021/07/12 14:07:40;;;;;;;;;;;30.40;94.20;;;;;;4931304;29;19939;-74
2021/07/12 14:10:09;;;;;;;;;;;30.50;92.30;;;;;;4917888;29;19926;-74
2021/07/12 14:12:37;;;;;;;;;;;30.50;92.00;;;;;;4898537;29;19927;-74
2021/07/12 14:15:04;;;;;;;;;;;30.60;92.40;;;;;;4926261;29;19953;-74
2021/07/12 14:17:31;;;;;;;;;;;30.70;91.70;;;;;;4930835;29;19930;-75
2021/07/12 14:19:58;;;;;;;;;;;30.90;91.30;;;;;;4917405;29;19926;-75
2021/07/12 14:22:29;;;;;;;;;;;30.90;90.90;;;;;;4914870;29;19927;-75
2021/07/12 14:24:56;;;;;;;;;;;30.90;91.10;;;;;;4911603;29;19934;-75
2021/07/12 14:27:28;;;;;;;;;;;31.00;89.10;;;;;;4931811;29;19937;-75
2021/07/12 14:29:59;;;;;;;;;;;30.70;91.10;;;;;;4917326;29;20378;-75
2021/07/12 14:32:31;;;;;;;;;;;30.50;91.50;;;;;;4914222;29;19966;-75
2021/07/12 14:34:58;;;;;;;;;;;30.40;91.30;;;;;;4916435;29;20347;-75
2021/07/12 14:37:30;;;;;;;;;;;30.40;90.30;;;;;;4898547;29;20017;-75
2021/07/12 14:39:56;;;;;;;;;;;30.40;90.40;;;;;;4914780;29;19976;-75